createdAt,value
2022-12-19T00:01:39.311Z,58.23
2022-12-19T00:06:43.702Z,58.32
2022-12-19T00:11:49.421Z,58.78
2022-12-19T00:16:54.491Z,59.07
2022-12-19T00:21:57.289Z,59.75
2022-12-19T00:27:00.121Z,60.05
2022-12-19T00:32:06.505Z,60.66
2022-12-19T00:37:09.523Z,61.19
2022-12-19T00:42:12.309Z,61.56
2022-12-19T00:47:16.403Z,61.69
2022-12-19T00:52:19.198Z,62.08
2022-12-19T00:57:21.981Z,62.46
2022-12-19T01:02:26.265Z,62.59
2022-12-19T01:07:30.340Z,62.85
2022-12-19T01:12:48.924Z,63.00
2022-12-19T01:17:53.202Z,63.13
2022-12-19T01:22:56.123Z,63.42
2022-12-19T01:28:03.477Z,63.58
2022-12-19T01:33:12.356Z,63.77
2022-12-19T01:38:17.051Z,63.95
2022-12-19T01:43:20.349Z,64.13
2022-12-19T01:48:33.078Z,64.40
2022-12-19T01:53:48.483Z,64.45
2022-12-19T01:59:05.978Z,64.65
2022-12-19T02:04:14.791Z,64.74
2022-12-19T02:09:18.359Z,64.92
2022-12-19T02:14:21.976Z,65.18
2022-12-19T02:20:03.399Z,65.36
2022-12-19T02:25:32.134Z,65.63
2022-12-19T02:30:54.723Z,65.83
2022-12-19T02:36:08.580Z,66.02
2022-12-19T02:41:21.663Z,66.25
2022-12-19T02:46:27.926Z,66.22
2022-12-19T02:51:31.616Z,66.65
2022-12-19T02:56:48.778Z,66.86
2022-12-19T03:01:58.478Z,67.02
2022-12-19T03:07:10.426Z,67.29
2022-12-19T03:12:21.778Z,66.93
2022-12-19T03:17:27.188Z,67.09
2022-12-19T03:22:30.021Z,67.17
2022-12-19T03:27:39.303Z,67.29
2022-12-19T03:32:47.798Z,67.17
2022-12-19T03:37:53.432Z,67.36
2022-12-19T03:43:11.332Z,67.36
2022-12-19T03:48:20.938Z,67.60
2022-12-19T03:53:39.377Z,67.52
2022-12-19T03:58:48.780Z,67.58
2022-12-19T04:03:53.579Z,67.66
2022-12-19T04:08:58.067Z,67.54
2022-12-19T04:14:04.974Z,67.65
2022-12-19T04:19:16.838Z,67.87
2022-12-19T04:24:24.430Z,68.05
2022-12-19T04:29:32.007Z,67.89
2022-12-19T04:34:40.173Z,67.80
2022-12-19T04:39:45.602Z,67.47
2022-12-19T04:44:48.390Z,67.44
2022-12-19T04:49:52.492Z,67.28
2022-12-19T04:54:55.393Z,67.25
2022-12-19T04:59:58.338Z,67.08
2022-12-19T05:05:03.108Z,66.89
2022-12-19T05:10:07.206Z,66.78
2022-12-19T05:15:11.789Z,66.64
2022-12-19T05:20:16.009Z,66.52
2022-12-19T05:25:18.804Z,66.19
2022-12-19T05:30:23.290Z,66.23
2022-12-19T05:35:27.432Z,66.13
2022-12-19T05:40:30.612Z,66.15
2022-12-19T05:45:33.375Z,66.11
2022-12-19T05:50:37.844Z,65.94
2022-12-19T05:55:46.010Z,66.32
2022-12-19T06:00:48.765Z,65.89
2022-12-19T06:05:52.967Z,66.02
2022-12-19T06:10:55.793Z,66.07
2022-12-19T06:15:59.819Z,65.88
2022-12-19T06:21:06.206Z,65.95
2022-12-19T06:26:17.076Z,66.00
2022-12-19T06:31:24.679Z,65.99
2022-12-19T06:36:30.381Z,65.92
2022-12-19T06:41:50.649Z,65.97
2022-12-19T06:46:53.830Z,65.74
2022-12-19T06:51:57.957Z,65.74
2022-12-19T06:57:01.308Z,65.89
2022-12-19T07:02:16.901Z,65.86
2022-12-19T07:07:21.108Z,65.67
2022-12-19T07:12:23.844Z,65.78
2022-12-19T07:17:28.392Z,65.95
2022-12-19T07:22:35.402Z,65.72
2022-12-19T07:27:38.556Z,65.85
2022-12-19T07:32:41.400Z,65.84
2022-12-19T07:37:45.699Z,65.83
2022-12-19T07:42:48.518Z,65.91
2022-12-19T07:47:51.693Z,65.88
2022-12-19T07:52:56.730Z,65.87
2022-12-19T07:58:00.409Z,66.00
2022-12-19T08:03:03.725Z,42.83
2022-12-19T08:08:09.991Z,41.38
2022-12-19T08:13:12.729Z,41.16
2022-12-19T08:18:15.582Z,44.83
2022-12-19T08:23:24.281Z,44.66
2022-12-19T08:28:27.226Z,46.34
2022-12-19T08:33:30.028Z,47.32
2022-12-19T08:38:34.443Z,48.32
2022-12-19T08:43:38.133Z,49.24
2022-12-19T08:48:40.921Z,49.71
2022-12-19T08:53:46.623Z,50.31
2022-12-19T08:58:51.747Z,50.71
2022-12-19T09:04:12.967Z,51.43
2022-12-19T09:09:18.957Z,52.10
2022-12-19T09:14:21.955Z,52.56
2022-12-19T09:19:24.737Z,53.25
2022-12-19T09:24:29.087Z,53.72
2022-12-19T09:29:35.355Z,53.87
2022-12-19T09:34:39.284Z,54.49
2022-12-19T09:39:43.632Z,54.68
2022-12-19T09:45:05.968Z,55.08
2022-12-19T09:50:31.584Z,55.07
2022-12-19T09:55:40.360Z,55.38
2022-12-19T10:00:46.305Z,55.81
2022-12-19T10:06:31.183Z,55.79
2022-12-19T10:12:43.618Z,56.09
2022-12-19T10:17:24.116Z,56.16
2022-12-19T10:22:38.580Z,56.40
2022-12-19T10:27:59.311Z,56.74
2022-12-19T10:33:20.014Z,56.87
2022-12-19T10:38:30.253Z,57.54
2022-12-19T10:43:46.576Z,58.00
2022-12-19T10:48:52.262Z,58.13
2022-12-19T10:53:56.952Z,58.20
2022-12-19T10:59:02.714Z,58.29
2022-12-19T11:04:27.610Z,58.51
2022-12-19T11:09:32.463Z,58.94
2022-12-19T11:20:39.186Z,59.39
2022-12-19T11:29:25.720Z,59.53
2022-12-19T11:29:36.674Z,59.71
2022-12-19T11:36:40.028Z,59.81
2022-12-19T11:41:47.400Z,59.81
2022-12-19T11:46:58.027Z,59.79
2022-12-19T11:52:36.931Z,59.71
2022-12-19T11:57:37.129Z,59.84
2022-12-19T12:03:15.535Z,59.77
2022-12-19T12:10:52.550Z,59.55
2022-12-19T12:26:48.981Z,59.52
2022-12-19T12:31:10.539Z,59.59
2022-12-19T12:32:04.670Z,59.36
2022-12-19T12:42:20.999Z,59.04
2022-12-19T12:47:25.645Z,59.01
2022-12-19T12:52:35.195Z,59.24
2022-12-19T12:57:39.087Z,59.22
2022-12-19T13:02:42.944Z,59.30
2022-12-19T13:07:53.209Z,59.23
2022-12-19T13:13:02.399Z,59.34
2022-12-19T13:18:33.231Z,59.44
2022-12-19T13:24:16.008Z,51.94
2022-12-19T13:29:48.945Z,51.49
2022-12-19T13:35:04.755Z,53.16
2022-12-19T13:40:32.698Z,52.29
2022-12-19T13:45:40.822Z,52.43
2022-12-19T13:50:47.694Z,52.75
2022-12-19T13:55:55.542Z,53.54
2022-12-19T14:01:08.441Z,54.32
2022-12-19T14:06:27.458Z,55.01
2022-12-19T14:12:08.398Z,55.56
2022-12-19T14:17:07.289Z,55.66
2022-12-19T14:22:22.897Z,56.05
2022-12-19T14:28:21.386Z,56.59
2022-12-19T14:33:44.777Z,57.52
2022-12-19T14:39:24.342Z,58.40
2022-12-19T14:52:25.238Z,58.94
2022-12-19T14:54:01.974Z,59.08
2022-12-19T14:56:09.322Z,59.58
2022-12-19T15:01:09.020Z,60.00
2022-12-19T15:07:06.060Z,59.79
2022-12-19T15:14:47.460Z,60.01
2022-12-19T15:17:26.921Z,59.54
2022-12-19T15:22:31.196Z,59.28
2022-12-19T15:27:34.186Z,59.21
2022-12-19T15:32:37.071Z,58.74
2022-12-19T15:37:41.727Z,58.70
2022-12-19T15:42:47.218Z,58.58
2022-12-19T15:47:50.382Z,58.17
2022-12-19T15:52:57.592Z,57.89
2022-12-19T15:58:04.995Z,57.95
2022-12-19T16:03:22.940Z,57.83
2022-12-19T16:08:29.082Z,57.73
2022-12-19T16:13:35.607Z,57.50
2022-12-19T16:18:38.435Z,57.57
2022-12-19T16:23:43.022Z,57.66
2022-12-19T16:28:45.864Z,57.50
2022-12-19T16:33:48.770Z,57.62
2022-12-19T16:38:52.967Z,57.56
2022-12-19T16:43:57.080Z,57.44
2022-12-19T16:49:00.391Z,57.35
2022-12-19T16:54:04.756Z,57.41
2022-12-19T16:59:16.313Z,57.43
2022-12-19T17:04:21.524Z,57.27
2022-12-19T17:09:26.049Z,57.51
2022-12-19T17:14:32.070Z,57.57
2022-12-19T17:19:38.763Z,58.70
2022-12-19T17:24:43.041Z,57.98
2022-12-19T17:29:47.067Z,57.18
2022-12-19T17:34:49.838Z,56.51
2022-12-19T17:39:54.911Z,56.07
2022-12-19T17:44:57.755Z,56.45
2022-12-19T17:50:00.764Z,56.55
2022-12-19T17:55:17.612Z,56.79
2022-12-19T18:00:29.943Z,56.93
2022-12-19T18:05:35.734Z,56.82
2022-12-19T18:10:39.923Z,56.83
2022-12-19T18:15:42.822Z,56.64
2022-12-19T18:20:46.067Z,56.82
2022-12-19T18:25:56.103Z,56.65
2022-12-19T18:31:07.701Z,57.07
2022-12-19T18:36:18.748Z,56.97
2022-12-19T18:41:23.447Z,56.69
2022-12-19T18:46:29.366Z,56.84
2022-12-19T18:51:32.248Z,56.56
2022-12-19T18:56:36.450Z,56.03
2022-12-19T19:01:42.941Z,55.65
2022-12-19T19:06:50.790Z,55.93
2022-12-19T19:11:55.966Z,55.82
2022-12-19T19:16:58.906Z,56.36
2022-12-19T19:22:01.887Z,56.14
2022-12-19T19:27:07.479Z,56.18
2022-12-19T19:32:10.986Z,56.19
2022-12-19T19:37:16.398Z,56.46
2022-12-19T19:42:20.878Z,56.34
2022-12-19T19:47:26.879Z,56.10
2022-12-19T19:52:30.207Z,56.21
2022-12-19T19:57:34.862Z,56.50
2022-12-19T20:02:37.880Z,56.38
2022-12-19T20:07:40.964Z,56.32
2022-12-19T20:12:46.577Z,56.50
2022-12-19T20:17:51.454Z,56.71
2022-12-19T20:22:54.771Z,56.57
2022-12-19T20:27:59.027Z,56.30
2022-12-19T20:33:01.752Z,56.68
2022-12-19T20:38:04.990Z,56.72
2022-12-19T20:43:09.104Z,56.80
2022-12-19T20:48:12.287Z,56.74
2022-12-19T20:53:15.163Z,56.92
2022-12-19T20:58:19.288Z,56.81
2022-12-19T21:03:30.253Z,56.98
2022-12-19T21:08:33.504Z,56.91
2022-12-19T21:13:39.231Z,56.86
2022-12-19T21:18:43.892Z,57.28
2022-12-19T21:23:47.218Z,57.24
2022-12-19T21:28:51.643Z,57.29
2022-12-19T21:33:56.151Z,57.18
2022-12-19T21:39:01.817Z,57.33
2022-12-19T21:44:06.240Z,57.44
2022-12-19T21:49:10.394Z,57.74
2022-12-19T21:54:13.353Z,57.62
2022-12-19T21:59:18.480Z,57.56
2022-12-19T22:04:23.726Z,57.52
2022-12-19T22:09:26.659Z,57.56
2022-12-19T22:14:30.777Z,57.46
2022-12-19T22:19:33.719Z,57.81
2022-12-19T22:24:36.978Z,57.55
2022-12-19T22:29:41.103Z,57.60
2022-12-19T22:34:44.054Z,57.78
2022-12-19T22:39:46.804Z,57.75
2022-12-19T22:44:51.032Z,58.19
2022-12-19T22:49:54.146Z,57.87
2022-12-19T22:54:57.008Z,57.78
2022-12-19T23:00:01.275Z,57.74
2022-12-19T23:05:06.297Z,57.69
2022-12-19T23:10:10.206Z,57.90
2022-12-19T23:15:14.834Z,58.13
2022-12-19T23:20:17.857Z,57.68
2022-12-19T23:25:20.943Z,57.74
2022-12-19T23:30:25.201Z,57.65
2022-12-19T23:35:28.015Z,57.88
2022-12-19T23:40:30.819Z,58.03
2022-12-19T23:45:39.004Z,58.15
2022-12-19T23:50:41.839Z,58.37
2022-12-19T23:55:44.687Z,58.76
